Airport Name : North Bay

Other Name : North Bay

ICAO : CYYB

IATA : YYB

FAA :

Latitude : 46.363611

Longitude : -79.422778

Country : Canada

Local Date and Time : 08 Jun 2023 04:49

 

TAF (Terminal Aerodrome Forecast)

TAF CYYB 080740Z 0808/0820 36005KT P6SM BKN050 TEMPO 0808/0818 5SM FU PROB30 0808/0812 2SM FU FM081800 02010KT 6SM FU BKN050 TEMPO 0818/0820 4SM -SHRA FU RMK FCST BASED ON AUTO OBS. NXT FCST BY 081400Z

 

METAR (METeorological Aerodrome Report)

CYYB 080800Z AUTO 36003KT 9SM OVC050 12/08 A2977 RMK SLP088

CYYB 080700Z AUTO 35004KT 9SM OVC050 12/08 A2978 RMK SLP090

CYYB 080600Z AUTO 34003KT 9SM OVC055 11/08 A2978 RMK SLP091

CYYB 080500Z AUTO 36003KT 9SM OVC055 12/08 A2979 RMK SLP093